Time;durP1;ratioP1;P1;durP2;ratioP2;P2;SDS_P1;SDS_P2;PMS_P1;PMS_P2;Temp;Humidity;BMP_temperature;BMP_pressure;BME280_temperature;BME280_humidity;BME280_pressure;Samples;Min_cycle;Max_cycle;Signal;HPM_P1;HPM_P2
2023/08/28 00:04:11;;;;;;;1.00;0.77;;;;;;;13.20;66.33;99585.22;10389234;28;20049;-61
2023/08/28 00:09:13;;;;;;;0.98;0.80;;;;;;;13.11;66.46;99578.03;10391988;28;20122;-61
2023/08/28 00:14:15;;;;;;;0.93;0.80;;;;;;;12.99;66.75;99585.03;10386664;28;20045;-61
2023/08/28 00:19:17;;;;;;;1.73;1.10;;;;;;;12.94;66.93;99566.19;10389658;28;20761;-61
2023/08/28 00:24:19;;;;;;;0.80;0.80;;;;;;;12.91;66.59;99572.50;10387319;28;20049;-61
2023/08/28 00:29:20;;;;;;;0.85;0.82;;;;;;;12.79;66.84;99559.44;10391063;28;20652;-61
2023/08/28 00:34:22;;;;;;;1.30;1.15;;;;;;;12.63;67.03;99551.88;10388485;28;20083;-61
2023/08/28 00:39:24;;;;;;;0.80;0.80;;;;;;;12.73;66.80;99550.25;10387600;28;20051;-61
2023/08/28 00:44:26;;;;;;;1.25;0.98;;;;;;;12.65;66.86;99550.00;10388235;28;20046;-61
2023/08/28 00:49:29;;;;;;;0.98;0.85;;;;;;;12.61;67.32;99552.94;10402884;28;20051;-61
2023/08/28 00:54:31;;;;;;;4.82;1.10;;;;;;;12.35;66.95;99561.91;10395837;28;20050;-61
2023/08/28 00:59:33;;;;;;;1.73;0.90;;;;;;;12.10;67.60;99550.53;10402021;28;20060;-61
2023/08/28 01:04:35;;;;;;;3.55;1.30;;;;;;;11.67;68.29;99553.66;10423470;28;20053;-61
2023/08/28 01:09:56;;;;;;;2.30;1.20;;;;;;;11.57;69.88;99548.25;10387682;28;20037;-61
2023/08/28 01:15:13;;;;;;;2.38;1.42;;;;;;;11.38;70.11;99550.47;10399495;28;20053;-61
2023/08/28 01:20:16;;;;;;;1.88;1.42;;;;;;;11.43;69.19;99560.63;10387768;28;20175;-61
2023/08/28 01:25:19;;;;;;;1.45;1.13;;;;;;;11.63;69.02;99552.22;10413804;28;20048;-61
2023/08/28 01:30:21;;;;;;;1.75;1.00;;;;;;;11.72;68.96;99528.00;10386597;28;20060;-61
2023/08/28 01:35:26;;;;;;;1.30;1.02;;;;;;;11.98;68.87;99514.72;10388147;28;20257;-61
2023/08/28 01:40:43;;;;;;;1.83;1.00;;;;;;;12.20;68.66;99500.88;10387266;28;20049;-61
2023/08/28 01:45:45;;;;;;;1.10;1.00;;;;;;;12.41;67.98;99512.47;10398161;28;22363;-61
2023/08/28 01:50:47;;;;;;;3.75;1.20;;;;;;;12.47;67.70;99512.00;10386170;28;20060;-61
2023/08/28 01:56:07;;;;;;;5.38;1.50;;;;;;;12.53;68.50;99537.78;10398486;28;20474;-61
2023/08/28 02:01:09;;;;;;;1.20;1.00;;;;;;;12.53;68.08;99569.25;10387138;28;20050;-61
2023/08/28 02:06:11;;;;;;;1.35;1.00;;;;;;;12.61;68.07;99590.53;10393674;28;20563;-61
2023/08/28 02:11:13;;;;;;;1.15;1.00;;;;;;;12.64;67.72;99599.97;10398734;28;20079;-61
2023/08/28 02:16:19;;;;;;;4.00;1.00;;;;;;;12.58;67.68;99595.97;10399419;28;20155;-61
2023/08/28 02:21:22;;;;;;;1.38;1.17;;;;;;;12.56;67.65;99597.88;10410238;28;20140;-61
2023/08/28 02:26:25;;;;;;;4.05;1.20;;;;;;;12.59;67.57;99607.31;10402353;28;20045;-61
2023/08/28 02:31:27;;;;;;;1.60;1.00;;;;;;;12.59;67.52;99615.19;10409308;28;20051;-61
2023/08/28 02:36:29;;;;;;;1.52;0.90;;;;;;;12.54;67.66;99617.28;10402217;28;20767;-61
2023/08/28 02:41:31;;;;;;;1.70;1.00;;;;;;;12.43;67.45;99599.72;10430666;28;20489;-61
2023/08/28 02:46:33;;;;;;;1.08;0.90;;;;;;;12.49;67.71;99595.81;10415351;28;20124;-61
2023/08/28 02:51:35;;;;;;;0.88;0.85;;;;;;;12.47;67.50;99590.69;10399159;28;20136;-61
2023/08/28 02:56:38;;;;;;;1.23;0.90;;;;;;;12.45;67.78;99589.13;10400726;28;20509;-61
2023/08/28 03:01:40;;;;;;;1.58;1.33;;;;;;;12.29;67.56;99576.28;10398354;28;20510;-61
2023/08/28 03:06:42;;;;;;;1.67;1.08;;;;;;;12.06;67.51;99582.31;10394264;28;20164;-61
2023/08/28 03:11:45;;;;;;;3.17;1.00;;;;;;;12.07;68.05;99589.22;10403310;28;20490;-61
2023/08/28 03:16:47;;;;;;;1.98;1.00;;;;;;;12.15;67.93;99571.16;10394684;28;20045;-60
2023/08/28 03:21:49;;;;;;;1.65;1.08;;;;;;;12.16;67.87;99559.72;10404490;28;20053;-61
2023/08/28 03:26:51;;;;;;;7.03;1.00;;;;;;;12.08;68.58;99556.81;10405659;28;20045;-61
2023/08/28 03:31:53;;;;;;;1.60;1.10;;;;;;;12.20;68.02;99549.84;10389913;28;20516;-61
2023/08/28 03:36:55;;;;;;;2.67;1.08;;;;;;;12.32;67.62;99547.22;10405807;28;20041;-61
2023/08/28 03:41:57;;;;;;;3.75;1.25;;;;;;;12.23;67.47;99554.88;10392381;28;20049;-61
2023/08/28 03:46:58;;;;;;;1.95;1.00;;;;;;;12.13;67.67;99557.31;10389011;28;20053;-60
2023/08/28 03:52:01;;;;;;;2.75;1.67;;;;;;;12.02;67.92;99575.59;10403140;28;20073;-60
2023/08/28 03:57:03;;;;;;;1.88;1.10;;;;;;;12.05;67.46;99560.50;10394560;28;20042;-60
2023/08/28 04:02:05;;;;;;;5.25;1.70;;;;;;;11.90;67.57;99545.03;10392100;28;20045;-61
2023/08/28 04:07:07;;;;;;;1.23;1.10;;;;;;;12.06;67.52;99543.00;10398862;28;20459;-61
2023/08/28 04:12:11;;;;;;;1.98;1.10;;;;;;;12.17;67.38;99536.97;10390470;28;20057;-61
2023/08/28 04:17:14;;;;;;;4.18;1.40;;;;;;;12.23;67.34;99528.66;10388858;28;20483;-61
2023/08/28 04:22:16;;;;;;;2.90;1.13;;;;;;;12.18;67.41;99523.75;10398822;28;20049;-60
2023/08/28 04:27:19;;;;;;;7.97;1.58;;;;;;;12.15;67.42;99510.84;10422455;28;20045;-61
2023/08/28 04:32:21;;;;;;;18.45;1.70;;;;;;;12.15;67.09;99508.22;10393825;28;20053;-61
2023/08/28 04:37:24;;;;;;;4.70;1.30;;;;;;;12.09;67.58;99500.81;10386008;28;20044;-61
2023/08/28 04:42:29;;;;;;;6.35;1.80;;;;;;;12.00;68.13;99506.75;10400577;28;20068;-61
2023/08/28 04:47:31;;;;;;;17.38;1.92;;;;;;;12.01;67.64;99500.53;10388918;28;20114;-61
2023/08/28 04:52:34;;;;;;;28.92;1.98;;;;;;;12.01;67.55;99521.50;10399255;28;20571;-61
2023/08/28 04:57:36;;;;;;;42.75;3.28;;;;;;;11.84;67.86;99529.75;10371555;28;20468;-61
2023/08/28 05:02:39;;;;;;;28.60;2.08;;;;;;;11.81;67.97;99529.97;10420240;28;20232;-60
2023/08/28 05:07:41;;;;;;;15.52;1.50;;;;;;;11.84;67.73;99533.22;10382638;28;20040;-60
2023/08/28 05:12:43;;;;;;;20.48;1.60;;;;;;;11.90;67.77;99529.31;10389641;28;21067;-60
2023/08/28 05:17:46;;;;;;;7.72;1.30;;;;;;;11.81;67.80;99543.91;10384686;28;20041;-60
2023/08/28 05:22:48;;;;;;;37.47;2.47;;;;;;;11.67;68.11;99543.19;10418113;28;20084;-61
2023/08/28 05:27:50;;;;;;;29.52;2.55;;;;;;;11.69;68.07;99554.41;10374073;28;20041;-61
2023/08/28 05:32:52;;;;;;;12.85;1.30;;;;;;;12.01;68.13;99532.00;10388675;28;20529;-60
2023/08/28 05:37:54;;;;;;;18.00;1.42;;;;;;;12.09;68.10;99535.75;10384008;28;20305;-61
2023/08/28 05:42:56;;;;;;;21.70;1.50;;;;;;;12.25;67.50;99538.09;10380728;28;20068;-62
2023/08/28 05:47:58;;;;;;;7.55;1.25;;;;;;;12.17;67.48;99542.22;10378094;28;20064;-62
2023/08/28 05:53:00;;;;;;;10.52;1.45;;;;;;;12.29;67.79;99539.59;10391852;28;20083;-61
2023/08/28 05:58:02;;;;;;;18.05;1.98;;;;;;;12.27;67.39;99548.47;10420611;28;20037;-61
2023/08/28 06:03:04;;;;;;;2.30;1.15;;;;;;;12.32;67.13;99551.63;10390381;28;20493;-60
2023/08/28 06:08:07;;;;;;;2.03;1.20;;;;;;;12.50;66.88;99535.38;10409903;28;20045;-62
2023/08/28 06:13:11;;;;;;;4.18;1.30;;;;;;;12.62;66.29;99542.34;10394767;28;20073;-62
2023/08/28 06:18:13;;;;;;;1.70;1.25;;;;;;;12.73;66.48;99526.63;10392470;28;20148;-61
2023/08/28 06:23:17;;;;;;;1.55;1.08;;;;;;;12.98;66.19;99536.13;10391380;28;20048;-61
2023/08/28 06:28:19;;;;;;;3.78;1.00;;;;;;;13.29;65.91;99524.13;10404177;28;20046;-62
2023/08/28 06:33:22;;;;;;;1.25;1.10;;;;;;;13.46;65.68;99518.41;10390512;28;20192;-62
2023/08/28 06:38:24;;;;;;;2.90;1.20;;;;;;;13.54;65.21;99521.28;10427443;28;20207;-62
2023/08/28 06:43:26;;;;;;;1.67;0.80;;;;;;;13.58;64.95;99520.91;10388817;28;20048;-61
2023/08/28 06:48:28;;;;;;;1.55;1.00;;;;;;;13.54;65.14;99518.66;10391118;28;20037;-63
2023/08/28 06:53:33;;;;;;;20.95;1.70;;;;;;;13.72;64.99;99519.81;10420175;28;20112;-62
2023/08/28 06:58:35;;;;;;;4.82;0.90;;;;;;;13.89;64.50;99540.34;10378318;28;20053;-63
2023/08/28 07:03:37;;;;;;;1.23;1.00;;;;;;;14.19;64.38;99543.16;10386716;28;20041;-61
2023/08/28 07:08:39;;;;;;;1.27;1.00;;;;;;;14.62;63.20;99540.53;10387348;28;20061;-62
2023/08/28 07:13:42;;;;;;;1.95;1.20;;;;;;;14.34;63.40;99543.72;10389539;28;20417;-62
2023/08/28 07:18:44;;;;;;;1.70;0.93;;;;;;;14.31;62.82;99549.22;10376116;28;20077;-60
2023/08/28 07:23:46;;;;;;;1.55;1.08;;;;;;;14.46;62.93;99546.19;10395280;28;20138;-61
2023/08/28 07:28:50;;;;;;;1.08;0.90;;;;;;;14.57;62.45;99559.31;10392530;28;20044;-61
2023/08/28 07:33:54;;;;;;;1.55;1.10;;;;;;;14.46;62.88;99556.72;10387186;28;20537;-61
2023/08/28 07:38:57;;;;;;;0.88;0.80;;;;;;;14.34;63.05;99549.81;10422459;28;20059;-63
2023/08/28 07:44:01;;;;;;;3.13;1.20;;;;;;;14.29;63.21;99546.72;10390752;28;20055;-62
2023/08/28 07:49:05;;;;;;;1.55;1.00;;;;;;;13.97;64.05;99547.63;10387429;28;20045;-61
2023/08/28 07:54:09;;;;;;;2.05;1.40;;;;;;;13.95;63.90;99546.91;10388379;28;20036;-60
2023/08/28 07:59:11;;;;;;;2.88;1.30;;;;;;;13.98;63.93;99539.66;10385736;28;20049;-61
2023/08/28 08:04:14;;;;;;;1.52;1.20;;;;;;;14.01;63.97;99542.00;10387422;28;20048;-61
2023/08/28 08:09:17;;;;;;;2.03;1.48;;;;;;;14.28;63.74;99539.81;10420956;28;20737;-61
2023/08/28 08:14:19;;;;;;;1.92;1.30;;;;;;;14.66;63.04;99535.84;10389676;28;20064;-61
2023/08/28 08:19:21;;;;;;;2.40;1.20;;;;;;;14.95;62.78;99518.47;10390347;28;20452;-61
2023/08/28 08:24:23;;;;;;;1.70;1.23;;;;;;;15.21;62.13;99511.81;10387528;28;20513;-61
2023/08/28 08:29:25;;;;;;;1.60;1.17;;;;;;;15.20;61.80;99513.63;10388603;28;20698;-62
2023/08/28 08:34:28;;;;;;;2.38;1.10;;;;;;;15.08;61.93;99524.38;10401039;28;20080;-61
2023/08/28 08:39:31;;;;;;;2.35;1.27;;;;;;;15.47;61.73;99528.84;10386054;28;20548;-61
2023/08/28 08:44:34;;;;;;;2.40;1.45;;;;;;;15.98;60.65;99521.72;10383018;28;20041;-61
2023/08/28 08:49:39;;;;;;;1.58;1.23;;;;;;;16.53;59.45;99519.47;10387240;28;20049;-61
2023/08/28 08:54:42;;;;;;;1.70;1.20;;;;;;;17.04;58.78;99502.28;10385020;28;20513;-61
2023/08/28 08:59:44;;;;;;;2.28;1.45;;;;;;;17.75;58.24;99495.50;10385701;28;20140;-61
2023/08/28 09:04:47;;;;;;;1.00;0.93;;;;;;;18.26;56.55;99494.09;10387265;28;20052;-61
2023/08/28 09:09:49;;;;;;;1.25;1.10;;;;;;;18.51;56.40;99488.03;10384866;28;20045;-61
2023/08/28 09:14:52;;;;;;;3.88;1.10;;;;;;;18.71;55.74;99489.50;10383918;28;20076;-61
2023/08/28 09:19:54;;;;;;;2.13;1.30;;;;;;;18.30;56.09;99483.03;10385079;28;20045;-61
2023/08/28 09:24:56;;;;;;;1.52;1.10;;;;;;;18.34;56.46;99484.41;10384526;28;20209;-61
2023/08/28 09:29:58;;;;;;;2.38;1.25;;;;;;;17.96;56.80;99475.88;10384929;28;20045;-61
2023/08/28 09:35:00;;;;;;;6.32;1.80;;;;;;;18.37;56.12;99477.97;10386514;28;20406;-61
2023/08/28 09:40:02;;;;;;;3.78;1.60;;;;;;;18.49;56.26;99495.28;10390219;28;20054;-61
2023/08/28 09:45:06;;;;;;;3.30;1.27;;;;;;;18.62;55.41;99493.09;10385068;28;20037;-60
2023/08/28 09:50:09;;;;;;;3.90;1.40;;;;;;;18.54;55.85;99500.97;10384911;28;20044;-61
2023/08/28 09:55:11;;;;;;;2.08;1.27;;;;;;;18.85;55.57;99501.41;10383892;28;20054;-60
2023/08/28 10:00:13;;;;;;;2.47;1.23;;;;;;;19.38;54.76;99512.69;10388296;28;20509;-60
2023/08/28 10:05:17;;;;;;;3.53;1.33;;;;;;;19.54;54.10;99512.78;10387573;28;20045;-61
2023/08/28 10:10:19;;;;;;;2.40;1.40;;;;;;;19.82;53.21;99511.63;10384724;28;20042;-62
2023/08/28 10:15:22;;;;;;;3.78;1.88;;;;;;;19.94;53.13;99513.00;10382459;28;20257;-61
2023/08/28 10:20:26;;;;;;;2.83;1.65;;;;;;;20.48;51.44;99495.66;10384918;28;20104;-61
2023/08/28 10:25:30;;;;;;;5.13;1.70;;;;;;;20.55;50.51;99507.28;10389970;28;20041;-61
2023/08/28 10:30:34;;;;;;;3.20;1.70;;;;;;;20.35;49.98;99495.31;10383354;28;20052;-59
2023/08/28 10:35:37;;;;;;;2.80;1.60;;;;;;;20.47;49.74;99480.72;10381418;28;20041;-62
2023/08/28 10:40:40;;;;;;;4.25;1.80;;;;;;;20.85;49.62;99495.19;10406163;28;20049;-62
2023/08/28 10:45:43;;;;;;;2.92;1.80;;;;;;;21.40;48.75;99487.28;10388181;28;20118;-59
2023/08/28 10:50:46;;;;;;;2.95;1.65;;;;;;;21.59;48.17;99500.22;10391126;28;20049;-59
2023/08/28 10:55:55;;;;;;;3.55;1.80;;;;;;;21.60;45.61;99499.19;10392125;28;20049;-60
2023/08/28 11:01:17;;;;;;;3.72;1.80;;;;;;;21.16;45.04;99495.31;10392319;28;20414;-60
2023/08/28 11:06:45;;;;;;;4.03;1.75;;;;;;;21.31;45.83;99477.66;10399742;28;20041;-59
2023/08/28 11:11:47;;;;;;;2.95;1.60;;;;;;;20.96;47.21;99470.94;10387778;28;20060;-59
2023/08/28 11:17:03;;;;;;;6.72;2.28;;;;;;;21.12;46.62;99478.03;10390011;28;20763;-59
2023/08/28 11:22:06;;;;;;;2.83;1.52;;;;;;;20.80;46.15;99460.31;10388308;28;20059;-59
2023/08/28 11:27:31;;;;;;;2.65;1.42;;;;;;;21.12;44.15;99456.75;10396169;28;20049;-60
2023/08/28 11:32:34;;;;;;;2.45;1.60;;;;;;;21.32;44.98;99466.03;10391672;28;20164;-59
2023/08/28 11:37:42;;;;;;;3.58;2.00;;;;;;;21.57;44.97;99467.63;10393663;28;20041;-61
2023/08/28 11:42:46;;;;;;;2.72;1.77;;;;;;;21.40;44.59;99452.72;10387967;28;20059;-60
2023/08/28 11:47:49;;;;;;;2.60;1.52;;;;;;;21.23;45.44;99456.41;10390468;28;20048;-60
2023/08/28 11:52:51;;;;;;;3.33;1.60;;;;;;;21.81;44.93;99454.19;10387656;28;20052;-60
2023/08/28 11:57:53;;;;;;;2.20;1.33;;;;;;;22.36;44.02;99460.19;10386405;28;20053;-60
2023/08/28 12:02:55;;;;;;;4.65;1.70;;;;;;;22.65;43.04;99444.31;10391531;28;20080;-61
2023/08/28 12:07:59;;;;;;;2.88;1.40;;;;;;;22.27;43.33;99426.63;10389603;28;20049;-60
2023/08/28 12:13:02;;;;;;;2.25;1.33;;;;;;;21.80;44.50;99407.28;10386069;28;20601;-60
2023/08/28 12:18:06;;;;;;;2.53;1.38;;;;;;;21.62;44.56;99412.06;10389149;28;20429;-60
2023/08/28 12:23:11;;;;;;;1.55;1.17;;;;;;;21.72;44.36;99402.03;10384724;28;20092;-60
2023/08/28 12:28:16;;;;;;;2.70;1.48;;;;;;;22.11;43.79;99399.28;10385372;28;20045;-60
2023/08/28 12:33:20;;;;;;;2.25;1.30;;;;;;;22.26;43.66;99395.66;10386506;28;20038;-60
2023/08/28 12:38:22;;;;;;;2.13;1.30;;;;;;;21.96;43.88;99403.69;10387402;28;20053;-61
2023/08/28 12:43:24;;;;;;;1.80;1.25;;;;;;;21.70;44.50;99393.38;10387414;28;20053;-61
2023/08/28 12:48:26;;;;;;;1.90;1.30;;;;;;;21.43;44.19;99393.84;10387304;28;20053;-61
2023/08/28 12:53:28;;;;;;;2.67;1.30;;;;;;;21.51;43.98;99402.63;10385562;28;20052;-61
2023/08/28 12:58:30;;;;;;;2.17;1.40;;;;;;;21.72;44.74;99396.69;10386831;28;20315;-61
2023/08/28 13:03:34;;;;;;;2.97;1.30;;;;;;;22.17;43.93;99390.59;10382469;28;20061;-61
2023/08/28 13:08:36;;;;;;;2.92;1.40;;;;;;;22.47;43.57;99387.84;10390468;28;20409;-61
2023/08/28 13:13:38;;;;;;;2.00;1.40;;;;;;;22.57;43.29;99391.06;10387173;28;20285;-61
2023/08/28 13:18:40;;;;;;;3.33;1.50;;;;;;;22.39;43.75;99395.06;10388402;28;20127;-61
2023/08/28 13:23:49;;;;;;;3.22;1.48;;;;;;;22.22;43.59;99390.88;10387883;28;20056;-61
2023/08/28 13:28:52;;;;;;;2.13;1.30;;;;;;;22.08;44.09;99396.97;10389660;28;20077;-61
2023/08/28 13:33:53;;;;;;;2.08;1.13;;;;;;;22.00;43.91;99389.00;10386127;28;20041;-61
2023/08/28 13:38:56;;;;;;;2.05;1.13;;;;;;;21.92;44.02;99395.22;10399305;28;20079;-62
2023/08/28 13:43:58;;;;;;;2.70;1.30;;;;;;;21.81;44.16;99396.47;10384164;28;20438;-62
2023/08/28 13:49:00;;;;;;;2.25;1.40;;;;;;;21.25;44.67;99395.91;10388089;28;20171;-61
2023/08/28 13:54:03;;;;;;;1.80;1.17;;;;;;;21.15;45.47;99409.38;10419543;28;21593;-62
2023/08/28 13:59:05;;;;;;;2.33;1.05;;;;;;;20.79;45.75;99408.13;10384205;28;20041;-61
2023/08/28 14:04:08;;;;;;;1.13;0.90;;;;;;;20.74;45.76;99410.50;10380793;28;20036;-60
2023/08/28 14:09:10;;;;;;;1.98;1.10;;;;;;;20.53;46.14;99408.31;10384180;28;20081;-61
2023/08/28 14:14:12;;;;;;;4.20;1.20;;;;;;;20.61;45.78;99413.66;10387507;28;20419;-61
2023/08/28 14:19:15;;;;;;;1.88;0.95;;;;;;;20.82;45.16;99406.00;10392614;28;20045;-62
2023/08/28 14:24:18;;;;;;;1.27;1.00;;;;;;;20.97;44.99;99414.91;10391930;28;20072;-61
2023/08/28 14:29:20;;;;;;;2.67;0.80;;;;;;;20.98;45.21;99408.63;10391778;28;20490;-62
2023/08/28 14:34:23;;;;;;;1.00;0.77;;;;;;;21.02;44.80;99401.97;10391521;28;20053;-62
2023/08/28 14:39:25;;;;;;;2.28;1.00;;;;;;;21.06;44.55;99397.13;10391362;28;20057;-62
2023/08/28 14:44:28;;;;;;;3.55;0.80;;;;;;;20.92;44.95;99403.97;10399035;28;20116;-61
2023/08/28 14:49:30;;;;;;;0.98;0.60;;;;;;;20.68;45.12;99414.63;10403019;28;20061;-61
2023/08/28 14:54:33;;;;;;;1.05;0.90;;;;;;;20.57;45.03;99408.81;10390358;28;20532;-62
2023/08/28 14:59:36;;;;;;;2.17;0.90;;;;;;;20.43;45.42;99393.56;10390551;28;20052;-62
2023/08/28 15:04:38;;;;;;;0.85;0.80;;;;;;;20.53;45.34;99395.03;10393038;28;20100;-61
2023/08/28 15:09:42;;;;;;;1.45;0.80;;;;;;;20.57;45.30;99390.22;10390222;28;20486;-62
2023/08/28 15:14:44;;;;;;;1.83;1.00;;;;;;;20.61;45.16;99399.53;10391847;28;20107;-61
2023/08/28 15:19:46;;;;;;;2.05;1.10;;;;;;;20.55;44.58;99389.56;10386197;28;20049;-61
2023/08/28 15:24:49;;;;;;;1.13;0.70;;;;;;;20.69;44.72;99392.38;10388496;28;20434;-61
2023/08/28 15:29:51;;;;;;;2.13;0.85;;;;;;;20.54;45.13;99391.38;10398969;28;20050;-61
2023/08/28 15:34:53;;;;;;;1.10;0.98;;;;;;;20.60;45.49;99396.03;10387414;28;20774;-62
2023/08/28 15:39:56;;;;;;;3.35;1.33;;;;;;;20.46;45.54;99390.56;10390777;28;20405;-61
2023/08/28 15:44:58;;;;;;;1.08;1.00;;;;;;;20.18;46.77;99401.53;10389743;28;20374;-61
2023/08/28 15:50:03;;;;;;;3.00;1.45;;;;;;;19.93;46.89;99393.72;10388367;28;20072;-61
2023/08/28 15:55:05;;;;;;;2.85;1.20;;;;;;;19.82;47.09;99401.97;10390861;28;20168;-59
2023/08/28 16:00:08;;;;;;;1.13;0.93;;;;;;;19.78;47.30;99401.44;10388181;28;20052;-60
2023/08/28 16:05:10;;;;;;;5.10;1.52;;;;;;;19.70;48.00;99392.63;10389676;28;20176;-60
2023/08/28 16:10:12;;;;;;;2.40;1.40;;;;;;;19.73;47.91;99394.94;10387439;28;20098;-59
2023/08/28 16:15:14;;;;;;;3.42;1.23;;;;;;;19.81;47.68;99393.19;10386681;28;21915;-59
2023/08/28 16:20:16;;;;;;;1.98;1.15;;;;;;;19.62;48.30;99405.88;10401964;28;20891;-60
2023/08/28 16:25:18;;;;;;;2.28;1.33;;;;;;;19.49;48.09;99395.72;10386721;28;20044;-62
2023/08/28 16:30:20;;;;;;;2.45;1.42;;;;;;;19.45;48.37;99407.66;10388144;28;20597;-62
2023/08/28 16:35:23;;;;;;;9.25;3.13;;;;;;;19.39;48.54;99406.47;10418759;28;20045;-61
2023/08/28 16:40:26;;;;;;;3.70;1.70;;;;;;;19.27;48.63;99396.31;10383679;28;20506;-60
2023/08/28 16:45:28;;;;;;;1.40;1.00;;;;;;;19.26;48.68;99394.63;10398132;28;20044;-61
2023/08/28 16:50:30;;;;;;;1.27;1.00;;;;;;;19.28;49.04;99397.97;10387013;28;20057;-61
2023/08/28 16:55:32;;;;;;;2.00;1.10;;;;;;;19.27;49.35;99397.16;10384229;28;20052;-61
2023/08/28 17:00:36;;;;;;;1.38;0.95;;;;;;;19.05;49.45;99391.56;10386850;28;20054;-61
2023/08/28 17:05:38;;;;;;;2.70;1.40;;;;;;;19.11;49.50;99389.13;10386121;28;20051;-62
2023/08/28 17:10:40;;;;;;;1.75;1.10;;;;;;;18.97;49.94;99376.41;10386299;28;20059;-61
2023/08/28 17:15:43;;;;;;;1.80;1.20;;;;;;;18.92;49.89;99381.38;10382507;28;20045;-61
2023/08/28 17:20:45;;;;;;;1.77;1.10;;;;;;;18.79;50.37;99385.44;10384981;28;20049;-61
2023/08/28 17:25:48;;;;;;;1.83;1.10;;;;;;;18.77;50.44;99387.41;10384283;28;20049;-61
2023/08/28 17:30:50;;;;;;;1.80;1.40;;;;;;;18.84;50.44;99391.09;10385088;28;20049;-61
2023/08/28 17:35:52;;;;;;;2.55;1.40;;;;;;;18.81;50.68;99400.16;10382620;28;20175;-61
2023/08/28 17:40:54;;;;;;;2.97;1.13;;;;;;;18.67;51.28;99400.75;10397747;28;20104;-61
2023/08/28 17:45:57;;;;;;;1.83;1.10;;;;;;;18.50;51.73;99410.38;10381615;28;20048;-61
2023/08/28 17:51:07;;;;;;;2.50;1.52;;;;;;;18.37;52.83;99425.03;10405197;28;20051;-61
2023/08/28 17:56:09;;;;;;;1.80;1.23;;;;;;;18.24;53.40;99429.91;10371902;28;20411;-62
2023/08/28 18:01:12;;;;;;;2.92;1.10;;;;;;;18.18;53.58;99427.81;10394703;28;20073;-61
2023/08/28 18:06:14;;;;;;;2.03;1.30;;;;;;;18.04;53.74;99425.69;10390064;28;20080;-60
2023/08/28 18:11:16;;;;;;;3.10;1.30;;;;;;;17.91;53.88;99430.53;10395311;28;20056;-60
2023/08/28 18:16:20;;;;;;;2.28;1.45;;;;;;;17.81;53.85;99415.53;10390076;28;20057;-60
2023/08/28 18:21:23;;;;;;;2.33;1.10;;;;;;;17.73;53.86;99419.91;10401754;28;20292;-60
2023/08/28 18:26:27;;;;;;;3.17;1.20;;;;;;;17.68;53.98;99425.66;10395798;28;20091;-60
2023/08/28 18:31:29;;;;;;;3.40;1.77;;;;;;;17.58;54.39;99430.19;10376668;28;20144;-60
2023/08/28 18:36:31;;;;;;;2.13;1.35;;;;;;;17.52;54.11;99438.72;10396032;28;20422;-60
2023/08/28 18:41:35;;;;;;;1.95;1.35;;;;;;;17.48;54.03;99444.44;10403408;28;20045;-61
2023/08/28 18:46:39;;;;;;;2.08;1.40;;;;;;;17.43;54.04;99454.59;10394248;28;20045;-61
2023/08/28 18:51:41;;;;;;;2.38;1.50;;;;;;;17.35;53.85;99463.28;10396802;28;20567;-61
2023/08/28 18:56:43;;;;;;;1.48;1.23;;;;;;;17.31;53.83;99463.66;10395370;28;20327;-61
2023/08/28 19:01:45;;;;;;;2.53;1.30;;;;;;;17.35;54.71;99467.72;10393191;28;20053;-60
2023/08/28 19:06:47;;;;;;;3.03;1.65;;;;;;;17.30;54.67;99465.47;10396195;28;20421;-61
2023/08/28 19:11:50;;;;;;;2.33;1.30;;;;;;;17.25;54.85;99473.03;10392330;28;20057;-61
2023/08/28 19:16:52;;;;;;;1.65;1.20;;;;;;;17.15;55.39;99474.88;10393570;28;20033;-61
2023/08/28 19:21:53;;;;;;;2.40;1.40;;;;;;;17.12;55.50;99477.78;10392195;28;20045;-61
2023/08/28 19:26:56;;;;;;;3.88;1.98;;;;;;;17.01;56.26;99489.38;10400344;28;20057;-61
2023/08/28 19:31:58;;;;;;;2.95;1.60;;;;;;;16.97;56.43;99481.88;10393320;28;20057;-60
2023/08/28 19:37:00;;;;;;;1.52;1.25;;;;;;;16.82;56.82;99473.56;10393248;28;20291;-61
2023/08/28 19:42:02;;;;;;;5.60;1.60;;;;;;;16.77;56.96;99470.50;10392139;28;20050;-61
2023/08/28 19:47:04;;;;;;;2.72;1.30;;;;;;;16.66;57.30;99470.66;10391813;28;20429;-61
2023/08/28 19:52:13;;;;;;;2.15;1.40;;;;;;;16.64;57.73;99477.06;10392789;28;20383;-61
2023/08/28 19:57:17;;;;;;;2.20;1.20;;;;;;;16.62;57.82;99473.72;10389814;28;20049;-61
2023/08/28 20:02:19;;;;;;;2.03;1.33;;;;;;;16.59;58.07;99476.66;10391363;28;20053;-61
2023/08/28 20:07:22;;;;;;;2.50;1.38;;;;;;;16.54;58.36;99482.34;10390729;28;20049;-60
2023/08/28 20:12:24;;;;;;;1.65;1.20;;;;;;;16.55;58.10;99472.63;10393118;28;20857;-60
2023/08/28 20:17:26;;;;;;;6.82;1.40;;;;;;;16.56;58.31;99476.94;10392406;28;20077;-61
2023/08/28 20:22:28;;;;;;;2.13;1.40;;;;;;;16.51;58.65;99479.97;10396280;28;20136;-60
2023/08/28 20:27:31;;;;;;;2.75;1.48;;;;;;;16.55;58.71;99475.28;10410349;28;20053;-60
2023/08/28 20:32:33;;;;;;;6.10;1.88;;;;;;;16.60;58.48;99478.31;10399196;28;20075;-60
2023/08/28 20:37:35;;;;;;;2.90;1.55;;;;;;;16.58;58.25;99475.81;10393718;28;20115;-60
2023/08/28 20:42:37;;;;;;;3.60;1.40;;;;;;;16.51;58.69;99474.69;10401902;28;20061;-61
2023/08/28 20:47:40;;;;;;;1.67;1.30;;;;;;;16.33;59.14;99470.22;10403981;28;20045;-61
2023/08/28 20:52:44;;;;;;;2.22;1.40;;;;;;;16.36;59.39;99472.59;10393488;28;20060;-60
2023/08/28 20:57:46;;;;;;;2.72;1.60;;;;;;;16.29;59.23;99469.69;10393805;28;20130;-60
2023/08/28 21:02:48;;;;;;;6.30;2.22;;;;;;;16.20;59.19;99463.41;10396777;28;20073;-60
2023/08/28 21:07:51;;;;;;;3.03;1.80;;;;;;;16.21;59.50;99467.75;10391239;28;20454;-61
2023/08/28 21:12:53;;;;;;;2.65;1.50;;;;;;;16.27;59.08;99455.78;10401013;28;20048;-60
2023/08/28 21:17:58;;;;;;;2.75;1.48;;;;;;;16.34;58.57;99448.16;10398515;28;20041;-60
2023/08/28 21:23:00;;;;;;;2.85;1.60;;;;;;;16.32;58.43;99458.00;10394222;28;20045;-60
2023/08/28 21:28:03;;;;;;;6.05;2.00;;;;;;;16.21;59.29;99469.53;10426734;28;20041;-60
2023/08/28 21:33:06;;;;;;;3.78;1.50;;;;;;;16.16;59.06;99479.69;10391660;28;20056;-60
2023/08/28 21:38:09;;;;;;;3.90;1.60;;;;;;;16.27;59.21;99476.91;10391108;28;20083;-61
2023/08/28 21:43:11;;;;;;;2.58;1.60;;;;;;;16.28;58.63;99483.00;10389875;28;20048;-61
2023/08/28 21:48:13;;;;;;;2.22;1.48;;;;;;;16.34;58.87;99466.63;10395792;28;20048;-61
2023/08/28 21:53:34;;;;;;;2.90;1.50;;;;;;;16.29;59.22;99453.00;10392368;28;20217;-61
2023/08/28 21:58:55;;;;;;;4.22;2.17;;;;;;;16.18;59.33;99469.81;10397434;28;20045;-61
2023/08/28 22:04:16;;;;;;;3.60;2.00;;;;;;;16.09;59.71;99474.13;10398631;28;20425;-61
2023/08/28 22:09:37;;;;;;;2.75;1.80;;;;;;;16.01;59.75;99471.34;10398087;28;20045;-61
2023/08/28 22:15:04;;;;;;;2.85;1.67;;;;;;;16.08;59.76;99480.34;10399300;28;20053;-61
2023/08/28 22:20:07;;;;;;;3.58;1.90;;;;;;;16.09;59.80;99479.41;10401666;28;20128;-61
2023/08/28 22:25:09;;;;;;;2.83;1.70;;;;;;;15.96;59.85;99470.91;10387824;28;20049;-61
2023/08/28 22:30:11;;;;;;;2.58;1.50;;;;;;;15.99;59.76;99462.72;10384955;28;20046;-61
2023/08/28 22:35:13;;;;;;;2.28;1.50;;;;;;;15.96;60.17;99456.88;10391063;28;20874;-61
2023/08/28 22:40:18;;;;;;;5.70;1.90;;;;;;;15.91;59.98;99459.94;10395856;28;20217;-60
2023/08/28 22:45:20;;;;;;;2.70;1.70;;;;;;;15.85;60.60;99447.31;10393953;28;20134;-60
2023/08/28 22:50:22;;;;;;;3.40;1.70;;;;;;;15.86;59.96;99453.38;10394312;28;20066;-61
2023/08/28 22:55:24;;;;;;;3.58;2.03;;;;;;;15.87;59.92;99445.38;10426036;28;20050;-60
2023/08/28 23:00:26;;;;;;;2.50;1.67;;;;;;;15.84;60.24;99442.13;10394969;28;20708;-61
2023/08/28 23:05:28;;;;;;;2.63;1.80;;;;;;;15.77;60.16;99415.50;10394063;28;20353;-61
2023/08/28 23:10:30;;;;;;;3.47;2.00;;;;;;;15.70;60.36;99409.09;10393838;28;20033;-60
2023/08/28 23:15:34;;;;;;;3.47;1.65;;;;;;;15.66;60.37;99418.25;10392243;28;20053;-61
2023/08/28 23:20:36;;;;;;;4.43;1.90;;;;;;;15.56;60.69;99411.28;10392473;28;20176;-61
2023/08/28 23:25:38;;;;;;;3.45;2.08;;;;;;;15.39;61.12;99415.38;10391475;28;20176;-61
2023/08/28 23:30:40;;;;;;;3.60;1.80;;;;;;;15.40;61.69;99423.16;10390154;28;20486;-60